sensor_id;sensor_type;location;lat;lon;timestamp;P1;durP1;ratioP1;P2;durP2;ratioP2
22937;SDS011;11634;42.734;23.298;2023-01-31T00:00:48;16.97;;;11.40;;
22937;SDS011;11634;42.734;23.298;2023-01-31T00:03:13;21.40;;;11.90;;
22937;SDS011;11634;42.734;23.298;2023-01-31T00:05:39;18.57;;;11.13;;
22937;SDS011;11634;42.734;23.298;2023-01-31T00:08:04;20.03;;;11.63;;
22937;SDS011;11634;42.734;23.298;2023-01-31T00:10:31;19.67;;;11.67;;
22937;SDS011;11634;42.734;23.298;2023-01-31T00:12:56;19.17;;;10.90;;
22937;SDS011;11634;42.734;23.298;2023-01-31T00:15:22;19.47;;;11.90;;
22937;SDS011;11634;42.734;23.298;2023-01-31T00:17:47;20.00;;;11.43;;
22937;SDS011;11634;42.734;23.298;2023-01-31T00:20:13;20.90;;;11.33;;
22937;SDS011;11634;42.734;23.298;2023-01-31T00:22:39;20.67;;;12.13;;
22937;SDS011;11634;42.734;23.298;2023-01-31T00:25:04;20.73;;;12.33;;
22937;SDS011;11634;42.734;23.298;2023-01-31T00:27:30;23.27;;;13.70;;
22937;SDS011;11634;42.734;23.298;2023-01-31T00:29:56;24.67;;;14.07;;
22937;SDS011;11634;42.734;23.298;2023-01-31T00:32:23;21.73;;;13.37;;
22937;SDS011;11634;42.734;23.298;2023-01-31T00:34:51;19.00;;;12.93;;
22937;SDS011;11634;42.734;23.298;2023-01-31T00:37:18;22.90;;;13.10;;
22937;SDS011;11634;42.734;23.298;2023-01-31T00:39:45;19.70;;;11.93;;
22937;SDS011;11634;42.734;23.298;2023-01-31T00:42:12;22.27;;;12.83;;
22937;SDS011;11634;42.734;23.298;2023-01-31T00:44:39;21.60;;;13.50;;
22937;SDS011;11634;42.734;23.298;2023-01-31T00:47:05;20.33;;;12.80;;
22937;SDS011;11634;42.734;23.298;2023-01-31T00:49:30;23.00;;;12.53;;
22937;SDS011;11634;42.734;23.298;2023-01-31T00:51:56;24.10;;;14.00;;
22937;SDS011;11634;42.734;23.298;2023-01-31T00:54:22;22.07;;;13.40;;
22937;SDS011;11634;42.734;23.298;2023-01-31T00:56:48;23.87;;;14.77;;
22937;SDS011;11634;42.734;23.298;2023-01-31T00:59:14;26.77;;;15.07;;
22937;SDS011;11634;42.734;23.298;2023-01-31T01:01:39;21.53;;;12.93;;
22937;SDS011;11634;42.734;23.298;2023-01-31T01:04:05;21.07;;;12.70;;
22937;SDS011;11634;42.734;23.298;2023-01-31T01:06:32;22.73;;;14.23;;
22937;SDS011;11634;42.734;23.298;2023-01-31T01:08:58;23.87;;;12.13;;
22937;SDS011;11634;42.734;23.298;2023-01-31T01:11:26;17.93;;;11.30;;
22937;SDS011;11634;42.734;23.298;2023-01-31T01:13:55;24.50;;;12.97;;
22937;SDS011;11634;42.734;23.298;2023-01-31T01:16:26;23.87;;;12.87;;
22937;SDS011;11634;42.734;23.298;2023-01-31T01:18:54;19.10;;;11.93;;
22937;SDS011;11634;42.734;23.298;2023-01-31T01:21:21;22.17;;;13.57;;
22937;SDS011;11634;42.734;23.298;2023-01-31T01:23:48;23.40;;;13.53;;
22937;SDS011;11634;42.734;23.298;2023-01-31T01:26:15;22.27;;;13.57;;
22937;SDS011;11634;42.734;23.298;2023-01-31T01:28:43;18.83;;;12.00;;
22937;SDS011;11634;42.734;23.298;2023-01-31T01:31:09;23.10;;;13.10;;
22937;SDS011;11634;42.734;23.298;2023-01-31T01:33:39;23.20;;;12.50;;
22937;SDS011;11634;42.734;23.298;2023-01-31T01:36:06;20.27;;;12.40;;
22937;SDS011;11634;42.734;23.298;2023-01-31T01:38:33;18.73;;;11.67;;
22937;SDS011;11634;42.734;23.298;2023-01-31T01:41:00;18.40;;;11.17;;
22937;SDS011;11634;42.734;23.298;2023-01-31T01:46:11;19.33;;;10.67;;
22937;SDS011;11634;42.734;23.298;2023-01-31T01:48:40;20.70;;;11.43;;
22937;SDS011;11634;42.734;23.298;2023-01-31T01:51:09;17.40;;;10.13;;
22937;SDS011;11634;42.734;23.298;2023-01-31T01:53:37;19.57;;;10.83;;
22937;SDS011;11634;42.734;23.298;2023-01-31T01:56:06;19.80;;;10.83;;
22937;SDS011;11634;42.734;23.298;2023-01-31T01:59:17;18.47;;;10.50;;
22937;SDS011;11634;42.734;23.298;2023-01-31T02:01:31;20.80;;;9.73;;
22937;SDS011;11634;42.734;23.298;2023-01-31T02:04:04;15.97;;;9.60;;
22937;SDS011;11634;42.734;23.298;2023-01-31T02:06:34;14.70;;;8.50;;
22937;SDS011;11634;42.734;23.298;2023-01-31T02:08:59;17.00;;;9.47;;
22937;SDS011;11634;42.734;23.298;2023-01-31T02:11:26;13.93;;;9.47;;
22937;SDS011;11634;42.734;23.298;2023-01-31T02:14:04;21.60;;;11.90;;
22937;SDS011;11634;42.734;23.298;2023-01-31T02:16:33;19.73;;;11.50;;
22937;SDS011;11634;42.734;23.298;2023-01-31T02:18:59;17.17;;;10.80;;
22937;SDS011;11634;42.734;23.298;2023-01-31T02:27:38;16.07;;;9.07;;
22937;SDS011;11634;42.734;23.298;2023-01-31T02:33:43;13.73;;;8.20;;
22937;SDS011;11634;42.734;23.298;2023-01-31T02:44:12;12.90;;;8.43;;
22937;SDS011;11634;42.734;23.298;2023-01-31T02:49:55;14.03;;;8.23;;
22937;SDS011;11634;42.734;23.298;2023-01-31T02:52:29;17.20;;;10.70;;
22937;SDS011;11634;42.734;23.298;2023-01-31T02:55:08;13.43;;;8.63;;
22937;SDS011;11634;42.734;23.298;2023-01-31T02:57:58;13.30;;;8.20;;
22937;SDS011;11634;42.734;23.298;2023-01-31T03:00:25;16.10;;;8.57;;
22937;SDS011;11634;42.734;23.298;2023-01-31T03:02:52;15.50;;;8.80;;
22937;SDS011;11634;42.734;23.298;2023-01-31T03:05:18;17.03;;;10.67;;
22937;SDS011;11634;42.734;23.298;2023-01-31T03:07:46;15.77;;;8.73;;
22937;SDS011;11634;42.734;23.298;2023-01-31T03:19:26;13.80;;;8.87;;
22937;SDS011;11634;42.734;23.298;2023-01-31T03:22:04;13.93;;;8.07;;
22937;SDS011;11634;42.734;23.298;2023-01-31T03:24:35;14.07;;;8.57;;
22937;SDS011;11634;42.734;23.298;2023-01-31T03:27:02;12.30;;;7.83;;
22937;SDS011;11634;42.734;23.298;2023-01-31T03:29:30;12.77;;;7.83;;
22937;SDS011;11634;42.734;23.298;2023-01-31T03:32:05;13.30;;;8.47;;
22937;SDS011;11634;42.734;23.298;2023-01-31T03:34:36;15.13;;;8.63;;
22937;SDS011;11634;42.734;23.298;2023-01-31T03:37:08;15.70;;;9.40;;
22937;SDS011;11634;42.734;23.298;2023-01-31T03:42:44;18.17;;;9.83;;
22937;SDS011;11634;42.734;23.298;2023-01-31T03:45:19;18.73;;;10.20;;
22937;SDS011;11634;42.734;23.298;2023-01-31T03:47:51;22.60;;;11.17;;
22937;SDS011;11634;42.734;23.298;2023-01-31T03:50:44;15.63;;;8.30;;
22937;SDS011;11634;42.734;23.298;2023-01-31T03:53:17;16.70;;;10.00;;
22937;SDS011;11634;42.734;23.298;2023-01-31T03:55:51;19.03;;;9.47;;
22937;SDS011;11634;42.734;23.298;2023-01-31T03:58:29;16.27;;;10.17;;
22937;SDS011;11634;42.734;23.298;2023-01-31T04:01:00;18.57;;;11.27;;
22937;SDS011;11634;42.734;23.298;2023-01-31T04:03:29;17.20;;;10.63;;
22937;SDS011;11634;42.734;23.298;2023-01-31T04:06:11;17.37;;;10.23;;
22937;SDS011;11634;42.734;23.298;2023-01-31T04:08:38;20.30;;;11.97;;
22937;SDS011;11634;42.734;23.298;2023-01-31T04:11:07;22.70;;;12.13;;
22937;SDS011;11634;42.734;23.298;2023-01-31T04:13:35;18.93;;;11.30;;
22937;SDS011;11634;42.734;23.298;2023-01-31T04:16:01;13.97;;;7.97;;
22937;SDS011;11634;42.734;23.298;2023-01-31T04:18:28;15.57;;;9.23;;
22937;SDS011;11634;42.734;23.298;2023-01-31T04:20:53;14.23;;;9.10;;
22937;SDS011;11634;42.734;23.298;2023-01-31T04:23:19;13.13;;;7.97;;
22937;SDS011;11634;42.734;23.298;2023-01-31T04:25:45;16.27;;;10.90;;
22937;SDS011;11634;42.734;23.298;2023-01-31T04:28:10;20.23;;;12.23;;
22937;SDS011;11634;42.734;23.298;2023-01-31T04:30:36;16.97;;;9.07;;
22937;SDS011;11634;42.734;23.298;2023-01-31T04:33:02;16.53;;;9.43;;
22937;SDS011;11634;42.734;23.298;2023-01-31T04:35:27;16.23;;;9.63;;
22937;SDS011;11634;42.734;23.298;2023-01-31T04:37:53;15.37;;;10.03;;
22937;SDS011;11634;42.734;23.298;2023-01-31T04:40:19;16.13;;;9.87;;
22937;SDS011;11634;42.734;23.298;2023-01-31T04:42:45;19.33;;;10.27;;
22937;SDS011;11634;42.734;23.298;2023-01-31T04:45:10;20.50;;;12.23;;
22937;SDS011;11634;42.734;23.298;2023-01-31T04:47:36;21.13;;;12.20;;
22937;SDS011;11634;42.734;23.298;2023-01-31T04:50:02;16.30;;;10.90;;
22937;SDS011;11634;42.734;23.298;2023-01-31T04:52:27;19.13;;;11.63;;
22937;SDS011;11634;42.734;23.298;2023-01-31T04:54:53;19.30;;;12.00;;
22937;SDS011;11634;42.734;23.298;2023-01-31T04:57:18;19.50;;;10.97;;
22937;SDS011;11634;42.734;23.298;2023-01-31T04:59:44;21.30;;;12.87;;
22937;SDS011;11634;42.734;23.298;2023-01-31T05:02:10;20.47;;;12.83;;
22937;SDS011;11634;42.734;23.298;2023-01-31T05:04:38;19.13;;;11.57;;
22937;SDS011;11634;42.734;23.298;2023-01-31T05:07:04;23.67;;;14.13;;
22937;SDS011;11634;42.734;23.298;2023-01-31T05:09:30;23.73;;;13.73;;
22937;SDS011;11634;42.734;23.298;2023-01-31T05:11:56;19.10;;;11.83;;
22937;SDS011;11634;42.734;23.298;2023-01-31T05:14:23;21.17;;;13.17;;
22937;SDS011;11634;42.734;23.298;2023-01-31T05:16:49;18.30;;;10.87;;
22937;SDS011;11634;42.734;23.298;2023-01-31T05:19:14;16.47;;;10.70;;
22937;SDS011;11634;42.734;23.298;2023-01-31T05:21:40;15.70;;;9.80;;
22937;SDS011;11634;42.734;23.298;2023-01-31T05:24:28;18.30;;;11.30;;
22937;SDS011;11634;42.734;23.298;2023-01-31T05:26:56;20.43;;;11.50;;
22937;SDS011;11634;42.734;23.298;2023-01-31T05:29:26;22.13;;;13.27;;
22937;SDS011;11634;42.734;23.298;2023-01-31T05:31:54;20.33;;;10.60;;
22937;SDS011;11634;42.734;23.298;2023-01-31T05:34:21;20.17;;;12.57;;
22937;SDS011;11634;42.734;23.298;2023-01-31T05:36:49;18.07;;;9.47;;
22937;SDS011;11634;42.734;23.298;2023-01-31T05:39:19;15.57;;;9.50;;
22937;SDS011;11634;42.734;23.298;2023-01-31T05:41:45;19.37;;;10.97;;
22937;SDS011;11634;42.734;23.298;2023-01-31T05:44:11;20.43;;;13.07;;
22937;SDS011;11634;42.734;23.298;2023-01-31T05:46:37;14.30;;;9.73;;
22937;SDS011;11634;42.734;23.298;2023-01-31T05:49:03;17.63;;;11.83;;
22937;SDS011;11634;42.734;23.298;2023-01-31T05:51:29;22.63;;;12.77;;
22937;SDS011;11634;42.734;23.298;2023-01-31T05:53:54;21.77;;;12.90;;
22937;SDS011;11634;42.734;23.298;2023-01-31T05:56:20;16.77;;;10.07;;
22937;SDS011;11634;42.734;23.298;2023-01-31T05:58:46;18.77;;;11.17;;
22937;SDS011;11634;42.734;23.298;2023-01-31T06:01:17;21.43;;;12.03;;
22937;SDS011;11634;42.734;23.298;2023-01-31T06:03:44;21.17;;;12.67;;
22937;SDS011;11634;42.734;23.298;2023-01-31T06:06:10;21.90;;;13.50;;
22937;SDS011;11634;42.734;23.298;2023-01-31T06:08:36;22.33;;;13.57;;
22937;SDS011;11634;42.734;23.298;2023-01-31T06:11:02;21.10;;;12.30;;
22937;SDS011;11634;42.734;23.298;2023-01-31T06:13:32;24.00;;;13.87;;
22937;SDS011;11634;42.734;23.298;2023-01-31T06:15:57;22.37;;;13.20;;
22937;SDS011;11634;42.734;23.298;2023-01-31T06:18:24;19.77;;;12.77;;
22937;SDS011;11634;42.734;23.298;2023-01-31T06:20:51;23.10;;;14.53;;
22937;SDS011;11634;42.734;23.298;2023-01-31T06:23:17;19.50;;;12.77;;
22937;SDS011;11634;42.734;23.298;2023-01-31T06:25:43;19.07;;;12.73;;
22937;SDS011;11634;42.734;23.298;2023-01-31T06:28:08;23.03;;;14.80;;
22937;SDS011;11634;42.734;23.298;2023-01-31T06:30:35;15.50;;;9.90;;
22937;SDS011;11634;42.734;23.298;2023-01-31T06:33:00;20.70;;;13.77;;
22937;SDS011;11634;42.734;23.298;2023-01-31T06:35:26;21.03;;;12.80;;
22937;SDS011;11634;42.734;23.298;2023-01-31T06:37:53;15.17;;;9.97;;
22937;SDS011;11634;42.734;23.298;2023-01-31T06:40:19;17.57;;;12.13;;
22937;SDS011;11634;42.734;23.298;2023-01-31T06:42:44;18.33;;;11.63;;
22937;SDS011;11634;42.734;23.298;2023-01-31T06:45:10;19.87;;;11.80;;
22937;SDS011;11634;42.734;23.298;2023-01-31T06:47:36;18.03;;;10.33;;
22937;SDS011;11634;42.734;23.298;2023-01-31T06:50:02;15.13;;;10.53;;
22937;SDS011;11634;42.734;23.298;2023-01-31T06:52:28;18.70;;;11.27;;
22937;SDS011;11634;42.734;23.298;2023-01-31T06:54:54;13.57;;;8.93;;
22937;SDS011;11634;42.734;23.298;2023-01-31T06:57:19;20.17;;;13.13;;
22937;SDS011;11634;42.734;23.298;2023-01-31T06:59:45;19.77;;;12.23;;
22937;SDS011;11634;42.734;23.298;2023-01-31T07:02:10;18.60;;;11.17;;
22937;SDS011;11634;42.734;23.298;2023-01-31T07:04:36;21.20;;;12.83;;
22937;SDS011;11634;42.734;23.298;2023-01-31T07:07:02;16.63;;;9.33;;
22937;SDS011;11634;42.734;23.298;2023-01-31T07:09:27;20.40;;;11.80;;
22937;SDS011;11634;42.734;23.298;2023-01-31T07:11:53;16.50;;;10.00;;
22937;SDS011;11634;42.734;23.298;2023-01-31T07:14:18;16.60;;;12.60;;
22937;SDS011;11634;42.734;23.298;2023-01-31T07:16:44;19.77;;;12.43;;
22937;SDS011;11634;42.734;23.298;2023-01-31T07:19:09;21.30;;;13.33;;
22937;SDS011;11634;42.734;23.298;2023-01-31T07:21:35;18.47;;;11.50;;
22937;SDS011;11634;42.734;23.298;2023-01-31T07:24:01;24.33;;;15.07;;
22937;SDS011;11634;42.734;23.298;2023-01-31T07:26:27;24.00;;;14.33;;
22937;SDS011;11634;42.734;23.298;2023-01-31T07:28:53;17.00;;;11.43;;
22937;SDS011;11634;42.734;23.298;2023-01-31T07:31:18;19.63;;;12.33;;
22937;SDS011;11634;42.734;23.298;2023-01-31T07:33:44;19.00;;;11.60;;
22937;SDS011;11634;42.734;23.298;2023-01-31T07:36:14;12.47;;;7.37;;
22937;SDS011;11634;42.734;23.298;2023-01-31T07:38:40;14.93;;;9.83;;
22937;SDS011;11634;42.734;23.298;2023-01-31T07:41:06;16.17;;;9.70;;
22937;SDS011;11634;42.734;23.298;2023-01-31T07:43:34;13.60;;;8.70;;
22937;SDS011;11634;42.734;23.298;2023-01-31T07:46:01;15.37;;;10.30;;
22937;SDS011;11634;42.734;23.298;2023-01-31T07:48:26;18.37;;;11.37;;
22937;SDS011;11634;42.734;23.298;2023-01-31T07:50:57;18.90;;;12.23;;
22937;SDS011;11634;42.734;23.298;2023-01-31T07:53:26;15.77;;;11.57;;
22937;SDS011;11634;42.734;23.298;2023-01-31T07:55:53;15.20;;;9.73;;
22937;SDS011;11634;42.734;23.298;2023-01-31T07:58:18;19.00;;;11.70;;
22937;SDS011;11634;42.734;23.298;2023-01-31T08:00:44;15.17;;;10.23;;
22937;SDS011;11634;42.734;23.298;2023-01-31T08:03:29;22.80;;;12.33;;
22937;SDS011;11634;42.734;23.298;2023-01-31T08:05:59;20.47;;;12.37;;
22937;SDS011;11634;42.734;23.298;2023-01-31T08:08:28;18.07;;;10.10;;
22937;SDS011;11634;42.734;23.298;2023-01-31T08:10:53;14.30;;;9.13;;
22937;SDS011;11634;42.734;23.298;2023-01-31T08:13:19;22.07;;;13.10;;
22937;SDS011;11634;42.734;23.298;2023-01-31T08:15:46;12.97;;;8.90;;
22937;SDS011;11634;42.734;23.298;2023-01-31T08:18:12;15.73;;;9.90;;
22937;SDS011;11634;42.734;23.298;2023-01-31T08:20:38;15.20;;;10.27;;
22937;SDS011;11634;42.734;23.298;2023-01-31T08:23:05;14.27;;;9.77;;
22937;SDS011;11634;42.734;23.298;2023-01-31T08:25:31;16.80;;;10.13;;
22937;SDS011;11634;42.734;23.298;2023-01-31T08:27:56;14.43;;;9.53;;
22937;SDS011;11634;42.734;23.298;2023-01-31T08:30:22;13.77;;;8.70;;
22937;SDS011;11634;42.734;23.298;2023-01-31T08:32:48;15.00;;;9.47;;
22937;SDS011;11634;42.734;23.298;2023-01-31T08:35:13;12.03;;;8.73;;
22937;SDS011;11634;42.734;23.298;2023-01-31T08:37:39;12.73;;;8.67;;
22937;SDS011;11634;42.734;23.298;2023-01-31T08:40:05;10.73;;;7.30;;
22937;SDS011;11634;42.734;23.298;2023-01-31T08:42:31;12.70;;;8.27;;
22937;SDS011;11634;42.734;23.298;2023-01-31T08:44:56;12.23;;;9.47;;
22937;SDS011;11634;42.734;23.298;2023-01-31T08:47:22;15.60;;;9.63;;
22937;SDS011;11634;42.734;23.298;2023-01-31T08:49:47;11.67;;;8.20;;
22937;SDS011;11634;42.734;23.298;2023-01-31T08:52:13;9.20;;;5.60;;
22937;SDS011;11634;42.734;23.298;2023-01-31T08:54:38;12.13;;;7.53;;
22937;SDS011;11634;42.734;23.298;2023-01-31T08:57:04;9.57;;;6.50;;
22937;SDS011;11634;42.734;23.298;2023-01-31T08:59:30;10.50;;;8.67;;
22937;SDS011;11634;42.734;23.298;2023-01-31T09:01:55;11.50;;;7.23;;
22937;SDS011;11634;42.734;23.298;2023-01-31T09:04:21;17.07;;;9.47;;
22937;SDS011;11634;42.734;23.298;2023-01-31T09:06:46;12.97;;;9.50;;
22937;SDS011;11634;42.734;23.298;2023-01-31T09:09:12;14.17;;;9.63;;
22937;SDS011;11634;42.734;23.298;2023-01-31T09:11:38;16.50;;;7.97;;
22937;SDS011;11634;42.734;23.298;2023-01-31T09:14:03;11.23;;;7.83;;
22937;SDS011;11634;42.734;23.298;2023-01-31T09:16:29;10.47;;;7.47;;
22937;SDS011;11634;42.734;23.298;2023-01-31T09:18:54;10.67;;;7.53;;
22937;SDS011;11634;42.734;23.298;2023-01-31T09:21:21;11.93;;;7.37;;
22937;SDS011;11634;42.734;23.298;2023-01-31T09:23:52;7.63;;;6.13;;
22937;SDS011;11634;42.734;23.298;2023-01-31T09:26:20;10.90;;;8.10;;
22937;SDS011;11634;42.734;23.298;2023-01-31T09:28:45;12.93;;;8.23;;
22937;SDS011;11634;42.734;23.298;2023-01-31T09:31:12;6.43;;;5.20;;
22937;SDS011;11634;42.734;23.298;2023-01-31T09:33:39;8.60;;;6.37;;
22937;SDS011;11634;42.734;23.298;2023-01-31T09:36:07;12.07;;;6.40;;
22937;SDS011;11634;42.734;23.298;2023-01-31T09:38:34;8.63;;;6.17;;
22937;SDS011;11634;42.734;23.298;2023-01-31T09:41:02;8.83;;;6.53;;
22937;SDS011;11634;42.734;23.298;2023-01-31T09:43:33;7.90;;;6.00;;
22937;SDS011;11634;42.734;23.298;2023-01-31T09:46:04;5.53;;;4.57;;
22937;SDS011;11634;42.734;23.298;2023-01-31T09:51:51;9.03;;;6.27;;
22937;SDS011;11634;42.734;23.298;2023-01-31T09:54:30;7.20;;;4.27;;
22937;SDS011;11634;42.734;23.298;2023-01-31T10:02:52;6.33;;;4.70;;
22937;SDS011;11634;42.734;23.298;2023-01-31T10:05:17;8.73;;;5.20;;
22937;SDS011;11634;42.734;23.298;2023-01-31T10:07:50;7.20;;;4.80;;
22937;SDS011;11634;42.734;23.298;2023-01-31T10:13:00;7.27;;;5.47;;
22937;SDS011;11634;42.734;23.298;2023-01-31T10:15:36;6.63;;;4.57;;
22937;SDS011;11634;42.734;23.298;2023-01-31T10:18:08;6.10;;;4.47;;
22937;SDS011;11634;42.734;23.298;2023-01-31T10:20:45;7.10;;;4.50;;
22937;SDS011;11634;42.734;23.298;2023-01-31T10:25:55;6.17;;;4.67;;
22937;SDS011;11634;42.734;23.298;2023-01-31T10:28:41;4.35;;;3.83;;
22937;SDS011;11634;42.734;23.298;2023-01-31T10:33:54;4.30;;;3.80;;
22937;SDS011;11634;42.734;23.298;2023-01-31T10:39:11;6.27;;;4.00;;
22937;SDS011;11634;42.734;23.298;2023-01-31T10:41:46;3.97;;;3.17;;
22937;SDS011;11634;42.734;23.298;2023-01-31T10:47:22;3.43;;;2.30;;
22937;SDS011;11634;42.734;23.298;2023-01-31T10:49:53;4.43;;;3.43;;
22937;SDS011;11634;42.734;23.298;2023-01-31T10:58:16;5.03;;;4.03;;
22937;SDS011;11634;42.734;23.298;2023-01-31T11:00:47;5.07;;;3.67;;
22937;SDS011;11634;42.734;23.298;2023-01-31T11:03:14;4.67;;;4.07;;
22937;SDS011;11634;42.734;23.298;2023-01-31T11:05:47;4.33;;;3.90;;
22937;SDS011;11634;42.734;23.298;2023-01-31T11:10:50;4.78;;;3.38;;
22937;SDS011;11634;42.734;23.298;2023-01-31T11:13:18;7.80;;;4.40;;
22937;SDS011;11634;42.734;23.298;2023-01-31T11:15:45;4.03;;;3.60;;
22937;SDS011;11634;42.734;23.298;2023-01-31T11:18:29;4.38;;;3.53;;
22937;SDS011;11634;42.734;23.298;2023-01-31T11:20:58;4.83;;;3.17;;
22937;SDS011;11634;42.734;23.298;2023-01-31T11:23:27;5.53;;;3.43;;
22937;SDS011;11634;42.734;23.298;2023-01-31T11:25:55;5.70;;;4.27;;
22937;SDS011;11634;42.734;23.298;2023-01-31T11:30:53;5.17;;;3.70;;
22937;SDS011;11634;42.734;23.298;2023-01-31T11:33:39;3.87;;;3.10;;
22937;SDS011;11634;42.734;23.298;2023-01-31T11:36:11;6.93;;;4.27;;
22937;SDS011;11634;42.734;23.298;2023-01-31T11:38:41;5.67;;;4.07;;
22937;SDS011;11634;42.734;23.298;2023-01-31T11:51:54;8.77;;;5.07;;
22937;SDS011;11634;42.734;23.298;2023-01-31T11:54:22;6.30;;;4.77;;
22937;SDS011;11634;42.734;23.298;2023-01-31T11:56:51;5.03;;;3.90;;
22937;SDS011;11634;42.734;23.298;2023-01-31T11:59:18;5.43;;;4.70;;
22937;SDS011;11634;42.734;23.298;2023-01-31T12:01:48;5.10;;;4.57;;
22937;SDS011;11634;42.734;23.298;2023-01-31T12:04:17;5.83;;;4.17;;
22937;SDS011;11634;42.734;23.298;2023-01-31T12:06:59;7.83;;;4.20;;
22937;SDS011;11634;42.734;23.298;2023-01-31T12:09:45;5.70;;;5.10;;
22937;SDS011;11634;42.734;23.298;2023-01-31T12:12:27;5.50;;;4.97;;
22937;SDS011;11634;42.734;23.298;2023-01-31T12:15:03;5.13;;;4.07;;
22937;SDS011;11634;42.734;23.298;2023-01-31T12:17:40;5.63;;;3.93;;
22937;SDS011;11634;42.734;23.298;2023-01-31T12:20:16;5.07;;;4.07;;
22937;SDS011;11634;42.734;23.298;2023-01-31T12:22:59;4.27;;;3.00;;
22937;SDS011;11634;42.734;23.298;2023-01-31T12:28:30;5.60;;;3.57;;
22937;SDS011;11634;42.734;23.298;2023-01-31T12:44:41;7.23;;;5.67;;
22937;SDS011;11634;42.734;23.298;2023-01-31T12:47:26;5.60;;;3.97;;
22937;SDS011;11634;42.734;23.298;2023-01-31T12:49:56;5.73;;;4.20;;
22937;SDS011;11634;42.734;23.298;2023-01-31T12:58:00;5.23;;;3.57;;
22937;SDS011;11634;42.734;23.298;2023-01-31T13:03:31;4.43;;;3.77;;
22937;SDS011;11634;42.734;23.298;2023-01-31T13:06:13;5.20;;;4.70;;
22937;SDS011;11634;42.734;23.298;2023-01-31T13:08:51;5.17;;;4.13;;
22937;SDS011;11634;42.734;23.298;2023-01-31T13:11:21;6.37;;;3.90;;
22937;SDS011;11634;42.734;23.298;2023-01-31T13:13:59;3.87;;;3.47;;
22937;SDS011;11634;42.734;23.298;2023-01-31T13:16:33;6.80;;;4.13;;
22937;SDS011;11634;42.734;23.298;2023-01-31T13:19:04;5.13;;;3.40;;
22937;SDS011;11634;42.734;23.298;2023-01-31T13:21:37;6.97;;;4.10;;
22937;SDS011;11634;42.734;23.298;2023-01-31T13:24:10;5.50;;;4.17;;
22937;SDS011;11634;42.734;23.298;2023-01-31T13:29:41;4.80;;;3.33;;
22937;SDS011;11634;42.734;23.298;2023-01-31T13:37:51;4.33;;;3.93;;
22937;SDS011;11634;42.734;23.298;2023-01-31T13:40:20;6.10;;;3.90;;
22937;SDS011;11634;42.734;23.298;2023-01-31T13:42:50;4.83;;;4.30;;
22937;SDS011;11634;42.734;23.298;2023-01-31T13:48:35;5.40;;;4.10;;
22937;SDS011;11634;42.734;23.298;2023-01-31T13:51:28;4.50;;;2.67;;
22937;SDS011;11634;42.734;23.298;2023-01-31T13:56:59;4.10;;;3.37;;
22937;SDS011;11634;42.734;23.298;2023-01-31T13:59:27;5.93;;;4.23;;
22937;SDS011;11634;42.734;23.298;2023-01-31T14:01:55;5.63;;;2.90;;
22937;SDS011;11634;42.734;23.298;2023-01-31T14:04:25;5.33;;;3.43;;
22937;SDS011;11634;42.734;23.298;2023-01-31T14:14:39;6.77;;;3.80;;
22937;SDS011;11634;42.734;23.298;2023-01-31T14:20:06;5.13;;;4.60;;
22937;SDS011;11634;42.734;23.298;2023-01-31T14:26:00;6.17;;;3.47;;
22937;SDS011;11634;42.734;23.298;2023-01-31T14:28:26;4.73;;;3.93;;
22937;SDS011;11634;42.734;23.298;2023-01-31T14:30:51;6.83;;;4.20;;
22937;SDS011;11634;42.734;23.298;2023-01-31T14:33:20;4.67;;;4.00;;
22937;SDS011;11634;42.734;23.298;2023-01-31T14:38:43;5.70;;;4.03;;
22937;SDS011;11634;42.734;23.298;2023-01-31T14:42:07;6.30;;;3.93;;
22937;SDS011;11634;42.734;23.298;2023-01-31T14:47:21;6.07;;;4.13;;
22937;SDS011;11634;42.734;23.298;2023-01-31T14:55:58;8.10;;;4.50;;
22937;SDS011;11634;42.734;23.298;2023-01-31T14:58:35;5.00;;;3.80;;
22937;SDS011;11634;42.734;23.298;2023-01-31T15:01:02;6.07;;;4.47;;
22937;SDS011;11634;42.734;23.298;2023-01-31T15:03:35;5.90;;;4.07;;
22937;SDS011;11634;42.734;23.298;2023-01-31T15:06:11;6.13;;;4.30;;
22937;SDS011;11634;42.734;23.298;2023-01-31T15:08:47;8.73;;;4.97;;
22937;SDS011;11634;42.734;23.298;2023-01-31T15:17:38;7.03;;;4.43;;
22937;SDS011;11634;42.734;23.298;2023-01-31T15:22:16;6.10;;;5.10;;
22937;SDS011;11634;42.734;23.298;2023-01-31T15:24:50;9.60;;;6.43;;
22937;SDS011;11634;42.734;23.298;2023-01-31T15:27:39;7.97;;;5.70;;
22937;SDS011;11634;42.734;23.298;2023-01-31T15:33:01;6.90;;;4.77;;
22937;SDS011;11634;42.734;23.298;2023-01-31T15:35:33;6.77;;;4.73;;
22937;SDS011;11634;42.734;23.298;2023-01-31T15:41:38;5.50;;;4.30;;
22937;SDS011;11634;42.734;23.298;2023-01-31T15:44:21;7.13;;;4.87;;
22937;SDS011;11634;42.734;23.298;2023-01-31T15:46:49;10.77;;;5.13;;
22937;SDS011;11634;42.734;23.298;2023-01-31T15:49:23;7.47;;;4.83;;
22937;SDS011;11634;42.734;23.298;2023-01-31T15:52:01;8.33;;;5.87;;
22937;SDS011;11634;42.734;23.298;2023-01-31T15:54:52;16.87;;;9.97;;
22937;SDS011;11634;42.734;23.298;2023-01-31T15:57:24;8.47;;;6.27;;
22937;SDS011;11634;42.734;23.298;2023-01-31T15:59:53;9.70;;;5.30;;
22937;SDS011;11634;42.734;23.298;2023-01-31T16:02:21;5.60;;;4.57;;
22937;SDS011;11634;42.734;23.298;2023-01-31T16:04:51;6.50;;;5.20;;
22937;SDS011;11634;42.734;23.298;2023-01-31T16:07:17;5.57;;;4.87;;
22937;SDS011;11634;42.734;23.298;2023-01-31T16:09:45;7.23;;;5.07;;
22937;SDS011;11634;42.734;23.298;2023-01-31T16:12:12;7.27;;;5.33;;
22937;SDS011;11634;42.734;23.298;2023-01-31T16:14:40;8.53;;;5.27;;
22937;SDS011;11634;42.734;23.298;2023-01-31T16:17:09;7.80;;;5.13;;
22937;SDS011;11634;42.734;23.298;2023-01-31T16:19:35;9.20;;;6.27;;
22937;SDS011;11634;42.734;23.298;2023-01-31T16:22:01;11.33;;;6.93;;
22937;SDS011;11634;42.734;23.298;2023-01-31T16:24:27;6.93;;;5.37;;
22937;SDS011;11634;42.734;23.298;2023-01-31T16:35:00;5.93;;;4.83;;
22937;SDS011;11634;42.734;23.298;2023-01-31T16:37:35;7.73;;;4.83;;
22937;SDS011;11634;42.734;23.298;2023-01-31T16:40:24;4.97;;;4.30;;
22937;SDS011;11634;42.734;23.298;2023-01-31T16:45:33;6.93;;;5.33;;
22937;SDS011;11634;42.734;23.298;2023-01-31T16:48:41;6.07;;;4.77;;
22937;SDS011;11634;42.734;23.298;2023-01-31T16:51:47;6.67;;;4.97;;
22937;SDS011;11634;42.734;23.298;2023-01-31T16:54:11;5.60;;;4.47;;
22937;SDS011;11634;42.734;23.298;2023-01-31T16:56:40;7.53;;;5.13;;
22937;SDS011;11634;42.734;23.298;2023-01-31T16:59:53;8.43;;;5.63;;
22937;SDS011;11634;42.734;23.298;2023-01-31T17:02:03;7.47;;;5.90;;
22937;SDS011;11634;42.734;23.298;2023-01-31T17:04:38;7.30;;;5.10;;
22937;SDS011;11634;42.734;23.298;2023-01-31T17:07:06;7.33;;;4.93;;
22937;SDS011;11634;42.734;23.298;2023-01-31T17:09:39;7.20;;;5.83;;
22937;SDS011;11634;42.734;23.298;2023-01-31T17:12:05;11.50;;;7.53;;
22937;SDS011;11634;42.734;23.298;2023-01-31T17:14:32;11.50;;;7.13;;
22937;SDS011;11634;42.734;23.298;2023-01-31T17:16:59;9.27;;;6.70;;
22937;SDS011;11634;42.734;23.298;2023-01-31T17:19:25;7.40;;;5.40;;
22937;SDS011;11634;42.734;23.298;2023-01-31T17:21:51;7.53;;;5.43;;
22937;SDS011;11634;42.734;23.298;2023-01-31T17:24:17;12.10;;;5.67;;
22937;SDS011;11634;42.734;23.298;2023-01-31T17:26:44;9.90;;;6.73;;